createdAt,value
2018-03-14T00:01:02.207Z,7.30
2018-03-14T00:03:30.458Z,6.43
2018-03-14T00:05:58.726Z,7.67
2018-03-14T00:08:27.158Z,7.83
2018-03-14T00:10:55.641Z,8.33
2018-03-14T00:13:23.968Z,7.30
2018-03-14T00:15:52.570Z,8.80
2018-03-14T00:18:21.128Z,7.53
2018-03-14T00:20:50.283Z,6.90
2018-03-14T00:23:18.526Z,9.00
2018-03-14T00:25:46.786Z,8.97
2018-03-14T00:28:15.792Z,9.47
2018-03-14T00:30:44.064Z,9.27
2018-03-14T00:33:13.086Z,9.10
2018-03-14T00:35:41.349Z,8.60
2018-03-14T00:38:09.657Z,8.33
2018-03-14T00:40:38.006Z,9.10
2018-03-14T00:43:07.032Z,9.30
2018-03-14T00:45:36.149Z,8.60
2018-03-14T00:48:04.409Z,8.47
2018-03-14T00:50:32.646Z,7.07
2018-03-14T00:53:00.903Z,7.80
2018-03-14T00:55:29.158Z,8.97
2018-03-14T00:57:57.414Z,8.80
2018-03-14T01:00:25.655Z,7.07
2018-03-14T01:02:54.110Z,8.17
2018-03-14T01:05:22.364Z,8.07
2018-03-14T01:07:50.623Z,7.40
2018-03-14T01:10:19.639Z,8.23
2018-03-14T01:12:49.514Z,9.77
2018-03-14T01:15:17.802Z,8.67
2018-03-14T01:17:46.056Z,8.37
2018-03-14T01:20:14.294Z,8.80
2018-03-14T01:22:43.442Z,8.60
2018-03-14T01:25:11.726Z,8.13
2018-03-14T01:27:39.993Z,8.20
2018-03-14T01:30:08.274Z,7.10
2018-03-14T01:32:36.521Z,7.93
2018-03-14T01:35:05.280Z,8.60
2018-03-14T01:37:34.498Z,8.77
2018-03-14T01:40:02.737Z,8.20
2018-03-14T01:42:31.015Z,9.30
2018-03-14T01:44:59.283Z,8.00
2018-03-14T01:47:27.561Z,7.73
2018-03-14T01:49:55.846Z,7.47
2018-03-14T01:52:24.085Z,8.37
2018-03-14T01:54:53.112Z,8.70
2018-03-14T01:57:21.392Z,8.30
2018-03-14T01:59:49.682Z,8.40
2018-03-14T02:02:17.951Z,7.97
2018-03-14T02:04:46.213Z,9.60
2018-03-14T02:07:15.231Z,7.20
2018-03-14T02:09:43.489Z,7.97
2018-03-14T02:12:12.535Z,9.27
2018-03-14T02:14:40.794Z,9.30
2018-03-14T02:17:09.034Z,8.23
2018-03-14T02:19:37.291Z,9.03
2018-03-14T02:22:05.554Z,9.23
2018-03-14T02:24:33.844Z,9.80
2018-03-14T02:27:02.092Z,9.90
2018-03-14T02:29:30.357Z,10.10
2018-03-14T02:31:59.636Z,10.43
2018-03-14T02:34:27.874Z,8.77
2018-03-14T02:37:02.069Z,8.97
2018-03-14T02:39:31.119Z,10.17
2018-03-14T02:41:59.485Z,9.97
2018-03-14T02:44:27.753Z,9.70
2018-03-14T02:46:56.074Z,9.97
2018-03-14T02:49:24.334Z,9.70
2018-03-14T02:51:52.675Z,10.00
2018-03-14T02:54:21.690Z,9.47
2018-03-14T02:56:50.048Z,11.10
2018-03-14T02:59:18.380Z,11.40
2018-03-14T03:01:46.633Z,9.60
2018-03-14T03:04:14.882Z,9.90
2018-03-14T03:06:43.145Z,9.50
2018-03-14T03:09:11.391Z,8.50
2018-03-14T03:11:39.654Z,8.00
2018-03-14T03:14:08.662Z,9.50
2018-03-14T03:16:37.237Z,9.40
2018-03-14T03:19:05.549Z,9.00
2018-03-14T03:21:33.793Z,9.23
2018-03-14T03:24:02.845Z,8.83
2018-03-14T03:26:31.114Z,9.73
2018-03-14T03:28:59.398Z,8.40
2018-03-14T03:31:27.634Z,9.43
2018-03-14T03:33:56.674Z,8.60
2018-03-14T03:36:24.938Z,9.33
2018-03-14T03:38:53.252Z,9.97
2018-03-14T03:41:21.542Z,9.60
2018-03-14T03:43:49.830Z,8.40
2018-03-14T03:46:18.078Z,8.57
2018-03-14T03:48:46.354Z,9.03
2018-03-14T03:51:14.610Z,7.80
2018-03-14T03:53:42.920Z,8.57
2018-03-14T03:56:11.156Z,8.17
2018-03-14T03:58:40.187Z,8.97
2018-03-14T04:01:08.440Z,8.67
2018-03-14T04:03:37.483Z,9.07
2018-03-14T04:06:05.727Z,9.10
2018-03-14T04:08:33.996Z,7.90
2018-03-14T04:11:02.997Z,8.00
2018-03-14T04:13:32.009Z,8.63
2018-03-14T04:16:00.261Z,9.90
2018-03-14T04:18:29.269Z,9.97
2018-03-14T04:20:58.428Z,8.37
2018-03-14T04:23:26.662Z,9.50
2018-03-14T04:25:55.722Z,9.40
2018-03-14T04:28:23.967Z,9.37
2018-03-14T04:30:52.234Z,8.87
2018-03-14T04:33:20.482Z,9.87
2018-03-14T04:35:48.747Z,11.07
2018-03-14T04:38:16.989Z,10.67
2018-03-14T04:40:45.254Z,10.83
2018-03-14T04:43:13.499Z,8.83
2018-03-14T04:45:41.760Z,9.10
2018-03-14T04:48:10.316Z,10.80
2018-03-14T04:50:38.573Z,9.57
2018-03-14T04:53:06.823Z,10.97
2018-03-14T04:55:35.866Z,9.53
2018-03-14T04:58:04.121Z,9.63
2018-03-14T05:00:33.144Z,9.50
2018-03-14T05:03:01.391Z,9.80
2018-03-14T05:05:30.407Z,9.73
2018-03-14T05:07:58.683Z,10.53
2018-03-14T05:10:27.723Z,9.50
2018-03-14T05:12:55.998Z,9.80
2018-03-14T05:15:24.288Z,9.67
2018-03-14T05:17:52.545Z,8.70
2018-03-14T05:20:20.798Z,8.03
2018-03-14T05:22:49.818Z,8.57
2018-03-14T05:25:18.063Z,9.07
2018-03-14T05:27:46.328Z,9.33
2018-03-14T05:30:14.582Z,8.60
2018-03-14T05:32:42.855Z,10.50
2018-03-14T05:35:11.250Z,10.57
2018-03-14T05:37:39.538Z,9.27
2018-03-14T05:40:07.817Z,8.60
2018-03-14T05:42:36.084Z,10.30
2018-03-14T05:45:04.349Z,9.10
2018-03-14T05:47:32.626Z,9.10
2018-03-14T05:50:01.636Z,8.17
2018-03-14T05:52:29.938Z,9.37
2018-03-14T05:54:58.182Z,9.20
2018-03-14T05:57:27.236Z,9.90
2018-03-14T05:59:55.656Z,9.40
2018-03-14T06:02:24.704Z,8.63
2018-03-14T06:04:52.972Z,9.53
2018-03-14T06:07:21.233Z,8.50
2018-03-14T06:09:50.251Z,8.77
2018-03-14T06:12:18.507Z,8.13
2018-03-14T06:14:47.531Z,10.10
2018-03-14T06:17:15.822Z,9.50
2018-03-14T06:19:44.066Z,9.27
2018-03-14T06:22:13.106Z,9.20
2018-03-14T06:24:41.366Z,9.70
2018-03-14T06:27:09.762Z,9.77
2018-03-14T06:29:38.052Z,9.27
2018-03-14T06:32:07.671Z,9.57
2018-03-14T06:34:40.258Z,9.13
2018-03-14T06:37:09.837Z,9.40
2018-03-14T06:39:39.648Z,9.00
2018-03-14T06:42:08.646Z,8.93
2018-03-14T06:44:38.501Z,9.77
2018-03-14T06:47:08.286Z,8.80
2018-03-14T06:49:36.689Z,9.67
2018-03-14T06:52:04.934Z,10.10
2018-03-14T06:54:33.228Z,9.70
2018-03-14T06:57:01.462Z,9.03
2018-03-14T06:59:41.621Z,8.83
2018-03-14T07:02:21.862Z,9.87
2018-03-14T07:05:02.448Z,10.03
2018-03-14T07:07:30.681Z,10.87
2018-03-14T07:09:58.971Z,9.90
2018-03-14T07:12:27.240Z,9.73
2018-03-14T07:14:55.497Z,8.50
2018-03-14T07:17:24.527Z,11.13
2018-03-14T07:19:52.777Z,8.53
2018-03-14T07:22:21.026Z,10.10
2018-03-14T07:24:49.331Z,10.13
2018-03-14T07:27:18.346Z,9.53
2018-03-14T07:29:46.619Z,8.93
2018-03-14T07:32:14.887Z,9.10
2018-03-14T07:34:44.078Z,9.00
2018-03-14T07:37:13.105Z,9.20
2018-03-14T07:39:41.345Z,8.97
2018-03-14T07:42:09.644Z,10.73
2018-03-14T07:44:38.666Z,10.70
2018-03-14T07:47:06.938Z,10.03
2018-03-14T07:49:35.242Z,9.27
2018-03-14T07:52:03.502Z,9.70
2018-03-14T07:54:31.749Z,9.60
2018-03-14T07:57:00.011Z,10.77
2018-03-14T07:59:28.487Z,10.40
2018-03-14T08:01:56.790Z,10.40
2018-03-14T08:04:25.027Z,10.53
2018-03-14T08:06:53.287Z,11.13
2018-03-14T08:09:22.571Z,10.40
2018-03-14T08:11:50.928Z,9.77
2018-03-14T08:14:19.190Z,10.00
2018-03-14T08:16:47.503Z,10.47
2018-03-14T08:19:15.741Z,11.40
2018-03-14T08:21:43.982Z,10.23
2018-03-14T08:24:13.023Z,10.73
2018-03-14T08:26:41.270Z,10.30
2018-03-14T08:29:10.320Z,11.70
2018-03-14T08:31:38.562Z,10.90
2018-03-14T08:34:06.848Z,12.30
2018-03-14T08:36:35.086Z,12.60
2018-03-14T08:39:04.910Z,13.00
2018-03-14T08:41:33.170Z,13.60
2018-03-14T08:44:01.642Z,11.63
2018-03-14T08:46:29.952Z,13.67
2018-03-14T08:48:58.199Z,13.17
2018-03-14T08:51:26.448Z,11.03
2018-03-14T08:53:54.732Z,12.20
2018-03-14T08:56:22.986Z,13.70
2018-03-14T08:58:52.030Z,13.17
2018-03-14T09:01:20.676Z,15.53
2018-03-14T09:03:49.810Z,15.70
2018-03-14T09:06:18.072Z,12.90
2018-03-14T09:08:47.135Z,12.63
2018-03-14T09:11:15.406Z,13.53
2018-03-14T09:13:43.661Z,12.23
2018-03-14T09:16:11.908Z,12.07
2018-03-14T09:18:40.925Z,11.43
2018-03-14T09:21:09.966Z,11.57
2018-03-14T09:23:38.219Z,12.70
2018-03-14T09:26:06.482Z,12.80
2018-03-14T09:28:35.504Z,10.93
2018-03-14T09:31:03.771Z,11.43
2018-03-14T09:33:32.053Z,13.90
2018-03-14T09:36:01.185Z,11.57
2018-03-14T09:38:29.431Z,13.03
2018-03-14T09:40:57.750Z,13.10
2018-03-14T09:43:25.997Z,10.70
2018-03-14T09:45:54.261Z,13.50
2018-03-14T09:48:23.271Z,13.37
2018-03-14T09:50:52.301Z,11.90
2018-03-14T09:53:20.550Z,11.20
2018-03-14T09:55:49.579Z,11.33
2018-03-14T09:58:17.868Z,12.60
2018-03-14T10:00:46.128Z,11.47
2018-03-14T10:03:14.395Z,13.30
2018-03-14T10:05:43.433Z,12.93
2018-03-14T10:08:12.059Z,11.70
2018-03-14T10:10:40.456Z,14.00
2018-03-14T10:13:09.141Z,10.63
2018-03-14T10:15:38.540Z,10.53
2018-03-14T10:18:07.701Z,9.67
2018-03-14T10:20:35.959Z,11.37
2018-03-14T10:23:04.819Z,10.63
2018-03-14T10:25:34.092Z,10.13
2018-03-14T10:28:02.274Z,10.00
2018-03-14T10:30:30.546Z,10.50
2018-03-14T10:32:58.796Z,10.90
2018-03-14T10:35:27.254Z,9.40
2018-03-14T10:37:56.558Z,10.03
2018-03-14T10:40:24.909Z,9.20
2018-03-14T10:42:53.170Z,10.03
2018-03-14T10:45:21.409Z,7.97
2018-03-14T10:47:49.667Z,6.90
2018-03-14T10:50:17.921Z,6.60
2018-03-14T10:52:46.190Z,6.00
2018-03-14T10:55:14.443Z,6.70
2018-03-14T10:57:42.725Z,7.57
2018-03-14T11:00:16.596Z,6.50
2018-03-14T11:02:50.635Z,6.27
2018-03-14T11:05:18.875Z,7.83
2018-03-14T11:07:47.142Z,7.47
2018-03-14T11:10:15.382Z,6.93
2018-03-14T11:12:45.162Z,5.90
2018-03-14T11:15:13.398Z,6.40
2018-03-14T11:17:42.423Z,6.50
2018-03-14T11:20:10.731Z,6.47
2018-03-14T11:22:39.164Z,6.40
2018-03-14T11:25:08.183Z,7.07
2018-03-14T11:27:36.458Z,6.90
2018-03-14T11:30:04.703Z,7.70
2018-03-14T11:32:34.468Z,7.13
2018-03-14T11:35:02.738Z,7.43
2018-03-14T11:37:31.754Z,8.20
2018-03-14T11:40:01.213Z,8.73
2018-03-14T11:42:29.457Z,9.13
2018-03-14T11:44:57.721Z,8.60
2018-03-14T11:47:25.983Z,8.10
2018-03-14T11:49:54.229Z,8.03
2018-03-14T11:52:22.576Z,8.20
2018-03-14T11:54:50.887Z,9.50
2018-03-14T11:57:19.193Z,7.40
2018-03-14T11:59:47.386Z,7.23
2018-03-14T12:02:15.650Z,8.13
2018-03-14T12:04:44.656Z,7.90
2018-03-14T12:07:13.913Z,8.30
2018-03-14T12:09:42.376Z,7.60
2018-03-14T12:12:10.646Z,8.13
2018-03-14T12:14:38.894Z,7.50
2018-03-14T12:17:07.918Z,8.07
2018-03-14T12:19:36.213Z,7.20
2018-03-14T12:22:04.477Z,7.80
2018-03-14T12:24:32.743Z,6.93
2018-03-14T12:27:01.006Z,7.73
2018-03-14T12:29:29.486Z,8.77
2018-03-14T12:31:57.734Z,7.70
2018-03-14T12:34:26.736Z,8.80
2018-03-14T12:36:54.998Z,8.47
2018-03-14T12:39:23.255Z,9.37
2018-03-14T12:41:52.321Z,10.00
2018-03-14T12:44:20.552Z,8.80
2018-03-14T12:46:48.838Z,8.77
2018-03-14T12:49:17.088Z,8.60
2018-03-14T12:51:45.357Z,8.03
2018-03-14T12:54:15.137Z,8.33
2018-03-14T12:56:43.591Z,8.70
2018-03-14T12:59:11.842Z,9.27
2018-03-14T13:01:40.215Z,9.07
2018-03-14T13:04:08.481Z,8.97
2018-03-14T13:06:36.733Z,8.57
2018-03-14T13:09:05.001Z,9.70
2018-03-14T13:11:33.302Z,9.50
2018-03-14T13:14:02.282Z,9.50
2018-03-14T13:16:30.566Z,8.77
2018-03-14T13:18:58.823Z,10.33
2018-03-14T13:21:27.976Z,8.87
2018-03-14T13:23:56.310Z,7.47
2018-03-14T13:26:25.335Z,7.73
2018-03-14T13:28:53.583Z,9.10
2018-03-14T13:31:22.627Z,9.50
2018-03-14T13:33:50.882Z,10.47
2018-03-14T13:36:19.903Z,12.40
2018-03-14T13:38:48.168Z,12.30
2018-03-14T13:41:16.476Z,11.27
2018-03-14T13:43:44.744Z,12.60
2018-03-14T13:46:13.103Z,11.90
2018-03-14T13:48:41.398Z,11.77
2018-03-14T13:51:09.691Z,12.40
2018-03-14T13:53:38.207Z,11.60
2018-03-14T13:56:06.448Z,12.40
2018-03-14T13:58:35.048Z,11.63
2018-03-14T14:01:04.246Z,13.53
2018-03-14T14:03:32.527Z,11.70
2018-03-14T14:06:00.806Z,13.00
2018-03-14T14:08:29.100Z,11.90
2018-03-14T14:10:57.346Z,12.53
2018-03-14T14:13:26.378Z,12.63
2018-03-14T14:15:54.662Z,14.00
2018-03-14T14:18:24.684Z,12.90
2018-03-14T14:20:52.933Z,12.70
2018-03-14T14:23:21.226Z,12.87
2018-03-14T14:25:49.486Z,12.40
2018-03-14T14:28:17.774Z,12.33
2018-03-14T14:30:46.022Z,12.73
2018-03-14T14:33:15.129Z,11.83
2018-03-14T14:35:43.332Z,15.10
2018-03-14T14:38:12.400Z,12.23
2018-03-14T14:40:40.726Z,12.00
2018-03-14T14:43:08.997Z,13.03
2018-03-14T14:45:37.243Z,12.23
2018-03-14T14:48:05.532Z,11.50
2018-03-14T14:50:33.767Z,12.70
2018-03-14T14:53:02.067Z,13.50
2018-03-14T14:55:30.317Z,15.97
2018-03-14T14:57:58.606Z,14.40
2018-03-14T15:00:26.884Z,13.83
2018-03-14T15:02:55.157Z,12.67
2018-03-14T15:05:23.398Z,13.70
2018-03-14T15:07:52.451Z,14.17
2018-03-14T15:10:20.716Z,12.40
2018-03-14T15:12:49.026Z,14.17
2018-03-14T15:15:17.343Z,13.70
2018-03-14T15:17:45.599Z,13.37
2018-03-14T15:20:13.859Z,12.30
2018-03-14T15:22:42.992Z,13.37
2018-03-14T15:25:11.288Z,14.73
2018-03-14T15:27:39.530Z,14.17
2018-03-14T15:30:07.796Z,14.20
2018-03-14T15:32:36.069Z,12.43
2018-03-14T15:35:04.323Z,12.50
2018-03-14T15:37:33.391Z,12.37
2018-03-14T15:40:01.625Z,12.40
2018-03-14T15:42:29.892Z,13.20
2018-03-14T15:44:58.966Z,12.70
2018-03-14T15:47:28.785Z,12.00
2018-03-14T15:49:57.084Z,13.40
2018-03-14T15:52:26.121Z,13.30
2018-03-14T15:54:54.374Z,13.67
2018-03-14T15:57:22.832Z,12.90
2018-03-14T15:59:52.394Z,13.77
2018-03-14T16:02:21.073Z,12.00
2018-03-14T16:04:49.514Z,13.53
2018-03-14T16:07:18.233Z,12.60
2018-03-14T16:09:46.552Z,12.27
2018-03-14T16:12:14.821Z,13.50
2018-03-14T16:14:43.124Z,12.03
2018-03-14T16:17:11.395Z,11.80
2018-03-14T16:19:39.919Z,12.50
2018-03-14T16:22:08.191Z,13.00
2018-03-14T16:24:36.504Z,12.93
2018-03-14T16:27:05.007Z,13.00
2018-03-14T16:29:33.487Z,12.50
2018-03-14T16:32:01.885Z,11.70
2018-03-14T16:34:30.172Z,12.13
2018-03-14T16:36:58.450Z,13.10
2018-03-14T16:39:26.734Z,12.77
2018-03-14T16:41:54.994Z,11.53
2018-03-14T16:44:24.035Z,12.83
2018-03-14T16:46:52.292Z,12.13
2018-03-14T16:49:20.627Z,11.50
2018-03-14T16:51:48.863Z,12.53
2018-03-14T16:54:17.159Z,13.33
2018-03-14T16:56:45.435Z,12.30
2018-03-14T16:59:13.715Z,13.80
2018-03-14T17:01:42.001Z,13.73
2018-03-14T17:04:10.277Z,13.70
2018-03-14T17:06:38.522Z,13.93
2018-03-14T17:09:07.580Z,15.47
2018-03-14T17:11:35.835Z,14.53
2018-03-14T17:14:04.095Z,13.50
2018-03-14T17:16:32.379Z,13.57
2018-03-14T17:19:00.695Z,14.90
2018-03-14T17:21:28.951Z,14.63
2018-03-14T17:23:57.233Z,14.53
2018-03-14T17:26:25.481Z,14.70
2018-03-14T17:28:54.533Z,14.00
2018-03-14T17:31:22.899Z,13.30
2018-03-14T17:33:51.165Z,15.00
2018-03-14T17:36:20.233Z,14.70
2018-03-14T17:38:48.744Z,13.90
2018-03-14T17:41:17.785Z,15.47
2018-03-14T17:43:46.085Z,15.57
2018-03-14T17:46:20.155Z,15.03
2018-03-14T17:48:48.434Z,13.90
2018-03-14T17:51:16.763Z,15.53
2018-03-14T17:53:45.046Z,14.93
2018-03-14T17:56:13.304Z,16.00
2018-03-14T17:58:41.586Z,17.20
2018-03-14T18:03:44.526Z,13.43
2018-03-14T18:06:12.805Z,13.67
2018-03-14T18:08:41.079Z,14.10
2018-03-14T18:11:09.342Z,14.13
2018-03-14T18:13:37.626Z,14.80
2018-03-14T18:16:05.884Z,14.10
2018-03-14T18:18:34.172Z,14.40
2018-03-14T18:21:02.446Z,14.00
2018-03-14T18:23:30.738Z,15.10
2018-03-14T18:25:59.002Z,15.50
2018-03-14T18:28:27.284Z,15.37
2018-03-14T18:30:55.556Z,15.40
2018-03-14T18:33:24.597Z,14.10
2018-03-14T18:35:52.857Z,14.17
2018-03-14T18:38:21.139Z,15.37
2018-03-14T18:40:49.415Z,14.83
2018-03-14T18:43:18.445Z,13.53
2018-03-14T18:45:46.706Z,14.67
2018-03-14T18:48:14.971Z,15.00
2018-03-14T18:50:43.226Z,16.17
2018-03-14T18:53:12.263Z,15.87
2018-03-14T18:55:40.519Z,14.93
2018-03-14T18:58:09.546Z,15.20
2018-03-14T19:00:37.818Z,15.30
2018-03-14T19:03:06.078Z,15.50
2018-03-14T19:05:35.104Z,15.70
2018-03-14T19:08:03.367Z,15.07
2018-03-14T19:10:32.391Z,14.97
2018-03-14T19:13:00.705Z,15.73
2018-03-14T19:15:28.972Z,16.00
2018-03-14T19:17:57.262Z,14.40
2018-03-14T19:20:25.503Z,15.77
2018-03-14T19:22:53.772Z,15.17
2018-03-14T19:25:22.015Z,15.30
2018-03-14T19:27:50.310Z,16.47
2018-03-14T19:30:18.555Z,14.90
2018-03-14T19:32:46.829Z,16.13
2018-03-14T19:35:15.105Z,15.20
2018-03-14T19:37:43.389Z,14.97
2018-03-14T19:40:11.672Z,15.07
2018-03-14T19:42:39.935Z,14.80
2018-03-14T19:45:08.202Z,18.13
2018-03-14T19:47:37.232Z,15.50
2018-03-14T19:50:05.495Z,15.00
2018-03-14T19:52:33.759Z,14.67
2018-03-14T19:55:03.646Z,15.63
2018-03-14T19:57:31.995Z,17.47
2018-03-14T20:00:00.279Z,15.63
2018-03-14T20:02:29.038Z,14.30
2018-03-14T20:04:58.082Z,14.87
2018-03-14T20:07:26.353Z,16.40
2018-03-14T20:09:54.615Z,15.70
2018-03-14T20:12:22.870Z,15.30
2018-03-14T20:14:51.911Z,14.67
2018-03-14T20:17:20.178Z,14.43
2018-03-14T20:19:48.441Z,14.90
2018-03-14T20:22:17.451Z,13.90
2018-03-14T20:27:09.832Z,14.17
2018-03-14T20:29:38.135Z,13.90
2018-03-14T20:32:06.432Z,13.17
2018-03-14T20:34:34.719Z,14.70
2018-03-14T20:37:02.956Z,13.70
2018-03-14T20:39:31.280Z,14.27
2018-03-14T20:41:59.531Z,15.37
2018-03-14T20:44:27.794Z,14.40
2018-03-14T20:46:56.091Z,14.00
2018-03-14T20:49:24.366Z,14.53
2018-03-14T20:51:52.653Z,15.03
2018-03-14T20:54:20.949Z,15.03
2018-03-14T20:56:49.206Z,13.60
2018-03-14T20:59:17.486Z,14.40
2018-03-14T21:01:45.731Z,13.67
2018-03-14T21:04:14.774Z,16.50
2018-03-14T21:06:43.018Z,14.20
2018-03-14T21:09:12.091Z,15.13
2018-03-14T21:11:40.315Z,15.00
2018-03-14T21:14:08.604Z,14.47
2018-03-14T21:16:36.851Z,14.50
2018-03-14T21:19:05.191Z,13.80
2018-03-14T21:21:33.442Z,13.60
2018-03-14T21:24:03.082Z,14.97
2018-03-14T21:26:31.342Z,14.60
2018-03-14T21:28:59.601Z,14.87
2018-03-14T21:31:28.733Z,14.10
2018-03-14T21:33:56.941Z,14.20
2018-03-14T21:36:25.298Z,14.60
2018-03-14T21:38:53.586Z,13.37
2018-03-14T21:41:21.849Z,14.63
2018-03-14T21:43:50.093Z,13.07
2018-03-14T21:46:19.140Z,13.47
2018-03-14T21:48:47.385Z,14.00
2018-03-14T21:51:16.526Z,13.60
2018-03-14T21:53:44.763Z,14.63
2018-03-14T21:56:13.295Z,13.83
2018-03-14T21:58:41.927Z,13.17
2018-03-14T22:01:10.720Z,14.67
2018-03-14T22:03:39.251Z,15.00
2018-03-14T22:06:08.057Z,13.87
2018-03-14T22:08:37.133Z,14.30
2018-03-14T22:11:05.445Z,15.27
2018-03-14T22:13:36.563Z,14.07
2018-03-14T22:16:05.594Z,15.23
2018-03-14T22:18:33.878Z,14.23
2018-03-14T22:21:02.163Z,14.53
2018-03-14T22:23:30.461Z,14.90
2018-03-14T22:25:58.826Z,16.13
2018-03-14T22:28:27.093Z,12.67
2018-03-14T22:30:55.364Z,15.90
2018-03-14T22:33:23.618Z,16.00
2018-03-14T22:35:52.665Z,15.63
2018-03-14T22:38:20.938Z,14.87
2018-03-14T22:40:49.241Z,15.00
2018-03-14T22:43:17.514Z,14.80
2018-03-14T22:45:45.759Z,15.50
2018-03-14T22:48:14.067Z,14.00
2018-03-14T22:50:42.399Z,15.10
2018-03-14T22:53:12.157Z,14.43
2018-03-14T22:55:40.438Z,14.73
2018-03-14T22:58:08.712Z,15.93
2018-03-14T23:00:36.966Z,14.37
2018-03-14T23:03:06.803Z,15.13
2018-03-14T23:05:35.057Z,17.37
2018-03-14T23:08:03.322Z,14.33
2018-03-14T23:10:31.578Z,15.83
2018-03-14T23:12:59.965Z,15.17
2018-03-14T23:15:28.198Z,15.37
2018-03-14T23:17:57.227Z,15.23
2018-03-14T23:20:25.494Z,16.20
2018-03-14T23:22:53.739Z,15.47
2018-03-14T23:25:22.002Z,14.50
2018-03-14T23:27:50.291Z,15.23
2018-03-14T23:30:18.639Z,14.83
2018-03-14T23:32:46.905Z,16.30
2018-03-14T23:35:15.157Z,14.83
2018-03-14T23:37:44.169Z,16.90
2018-03-14T23:40:12.440Z,16.30
2018-03-14T23:42:41.448Z,15.13
2018-03-14T23:45:10.494Z,15.53
2018-03-14T23:47:38.744Z,13.73
2018-03-14T23:50:07.215Z,15.40
2018-03-14T23:52:35.511Z,16.77
2018-03-14T23:55:04.516Z,15.07
2018-03-14T23:57:32.772Z,14.00
